Observations for VALLEY RAF, United Kingdom (EGOV)

EGOV 140750Z 23010KT 9999 FEW007 SCT019 BKN050 17/15 Q1014 WHT TEMPO 6000 -RADZ SCT007 GRN  
EGOV 140650Z 22009KT 9999 FEW008 BKN019 16/15 Q1014 WHT NOSIG   
EGOV 140550Z 22006KT 9999 SCT020 OVC026 16/14 Q1014 WHT TEMPO FEW020 BKN026 BLU 
EGOV 140450Z AUTO 27006KT 9999 BKN028/// 15/14 Q1013
EGOV 140350Z AUTO 29010KT 9999 FEW028/// SCT033/// BKN042/// 16/13 Q1013
EGOV 140250Z AUTO 28008KT 9999 BKN027/// SCT033/// BKN039/// 16/14 Q1013
EGOV 140150Z AUTO 24009KT 9999 SCT026/// BKN041/// 16/14 Q1013  
EGOV 140050Z AUTO 23008KT 9999 FEW034/// BKN043/// 16/14 Q1013  
EGOV 132350Z AUTO 24009KT 9999 FEW039/// SCT045/// 16/14 Q1013  
EGOV 132250Z AUTO 23009KT 9999 OVC038/// 16/14 Q1013
EGOV 132150Z AUTO 22008KT 9999 BKN037/// 16/14 Q1012
EGOV 132050Z AUTO 24009KT 9999 BKN028/// 16/14 Q1012
EGOV 131950Z AUTO 24007KT 9999 BKN029/// 16/14 Q1012
EGOV 131850Z 24007KT 9999 FEW010 SCT030 OVC040 17/13 Q1011 BLU  
EGOV 131750Z 26007KT 9999 FEW025 BKN030 17/13 Q1011 BLU 
EGOV 131650Z 26007KT 9999 FEW025 BKN048 17/13 Q1011 BLU 
EGOV 131550Z 29009KT 9999 FEW025 19/12 Q1010 BLU NOSIG  
EGOV 131450Z 30010KT 9999 FEW030 20/11 Q1010 BLU NOSIG  
EGOV 131350Z AUTO 31008KT 9999 SCT020/// 18/12 Q1010
EGOV 131250Z 32010KT 9999 FEW013 18/13 Q1010 BLU NOSIG  
EGOV 131150Z 32012KT 9999 FEW008 SCT040 18/13 Q1009 BLU NOSIG   
EGOV 131050Z 31012KT 9999 FEW006 SCT008 BKN070 18/14 Q1009 GRN BECMG FEW008 BLU 
EGOV 130950Z 32011KT 9999 FEW006 BKN007 OVC020 17/14 Q1008 GRN BECMG FEW007 BKN015 WHT  
EGOV 130850Z 34012KT 9999 FEW005 BKN007 OVC012 16/14 Q1008 GRN BECMG FEW007 BKN015 WHT  
EGOV 130750Z 33011KT 9999 FEW003 SCT006 OVC008 15/14 Q1007 YLO1 BECMG FEW006 SCT009 GRN